sensor_id;sensor_type;location;lat;lon;timestamp;pressure;altitude;pressure_sealevel;temperature;humidity
75409;BME280;63979;55.644;37.734;2023-02-15T00:03:21;100525.03;;;0.04;63.42
75409;BME280;63979;55.644;37.734;2023-02-15T00:08:22;100510.94;;;0.09;63.73
75409;BME280;63979;55.644;37.734;2023-02-15T00:13:23;100517.22;;;-0.03;64.05
75409;BME280;63979;55.644;37.734;2023-02-15T00:18:25;100520.69;;;0.01;64.23
75409;BME280;63979;55.644;37.734;2023-02-15T00:23:26;100520.63;;;0.06;64.31
75409;BME280;63979;55.644;37.734;2023-02-15T00:28:27;100523.34;;;-0.02;64.70
75409;BME280;63979;55.644;37.734;2023-02-15T00:33:28;100526.91;;;-0.06;64.42
75409;BME280;63979;55.644;37.734;2023-02-15T00:38:30;100533.84;;;-0.02;64.72
75409;BME280;63979;55.644;37.734;2023-02-15T00:43:32;100525.13;;;-0.04;64.52
75409;BME280;63979;55.644;37.734;2023-02-15T00:48:33;100478.34;;;-0.35;63.90
75409;BME280;63979;55.644;37.734;2023-02-15T00:53:34;100541.78;;;-0.08;64.33
75409;BME280;63979;55.644;37.734;2023-02-15T00:58:35;100513.84;;;-0.11;64.46
75409;BME280;63979;55.644;37.734;2023-02-15T01:03:36;100512.97;;;-0.10;64.36
75409;BME280;63979;55.644;37.734;2023-02-15T01:08:38;100501.69;;;-0.16;64.75
75409;BME280;63979;55.644;37.734;2023-02-15T01:13:39;100528.59;;;-0.02;64.65
75409;BME280;63979;55.644;37.734;2023-02-15T01:18:40;100540.00;;;-0.05;65.18
75409;BME280;63979;55.644;37.734;2023-02-15T01:23:42;100537.34;;;-0.03;64.48
75409;BME280;63979;55.644;37.734;2023-02-15T01:28:44;100534.88;;;-0.14;64.96
75409;BME280;63979;55.644;37.734;2023-02-15T01:33:47;100556.66;;;-0.07;64.61
75409;BME280;63979;55.644;37.734;2023-02-15T01:38:48;100551.47;;;-0.12;64.79
75409;BME280;63979;55.644;37.734;2023-02-15T01:49:21;100542.06;;;-0.26;64.09
75409;BME280;63979;55.644;37.734;2023-02-15T01:54:29;100564.00;;;-0.32;64.46
75409;BME280;63979;55.644;37.734;2023-02-15T01:59:34;100556.94;;;-0.28;65.12
75409;BME280;63979;55.644;37.734;2023-02-15T02:04:51;100556.16;;;-0.38;64.96
75409;BME280;63979;55.644;37.734;2023-02-15T02:09:52;100565.78;;;-0.39;64.68
75409;BME280;63979;55.644;37.734;2023-02-15T02:14:54;100577.22;;;-0.43;64.23
75409;BME280;63979;55.644;37.734;2023-02-15T02:25:52;100575.34;;;-0.30;63.57
75409;BME280;63979;55.644;37.734;2023-02-15T02:30:45;100574.50;;;-0.34;62.62
75409;BME280;63979;55.644;37.734;2023-02-15T02:46:44;100582.59;;;-0.55;62.34
75409;BME280;63979;55.644;37.734;2023-02-15T02:51:47;100550.44;;;-0.69;62.40
75409;BME280;63979;55.644;37.734;2023-02-15T02:56:49;100595.63;;;-0.47;62.16
75409;BME280;63979;55.644;37.734;2023-02-15T03:01:57;100593.09;;;-0.55;62.19
75409;BME280;63979;55.644;37.734;2023-02-15T03:07:03;100599.19;;;-0.53;62.60
75409;BME280;63979;55.644;37.734;2023-02-15T03:12:18;100599.13;;;-0.47;62.14
75409;BME280;63979;55.644;37.734;2023-02-15T03:17:22;100593.16;;;-0.59;62.57
75409;BME280;63979;55.644;37.734;2023-02-15T03:22:36;100607.88;;;-0.48;62.45
75409;BME280;63979;55.644;37.734;2023-02-15T03:27:48;100600.88;;;-0.49;62.08
75409;BME280;63979;55.644;37.734;2023-02-15T03:32:50;100615.78;;;-0.52;62.24
75409;BME280;63979;55.644;37.734;2023-02-15T03:37:57;100613.16;;;-0.51;61.45
75409;BME280;63979;55.644;37.734;2023-02-15T03:43:04;100549.66;;;-0.79;61.14
75409;BME280;63979;55.644;37.734;2023-02-15T03:48:08;100561.06;;;-0.83;61.44
75409;BME280;63979;55.644;37.734;2023-02-15T03:53:12;100601.00;;;-0.59;61.91
75409;BME280;63979;55.644;37.734;2023-02-15T03:58:15;100604.75;;;-0.85;62.11
75409;BME280;63979;55.644;37.734;2023-02-15T04:03:44;100627.41;;;-0.79;61.93
75409;BME280;63979;55.644;37.734;2023-02-15T04:08:46;100572.59;;;-0.99;62.05
75409;BME280;63979;55.644;37.734;2023-02-15T04:14:05;100629.13;;;-0.75;62.37
75409;BME280;63979;55.644;37.734;2023-02-15T04:19:25;100622.09;;;-0.72;61.47
75409;BME280;63979;55.644;37.734;2023-02-15T04:24:45;100636.94;;;-0.69;61.48
75409;BME280;63979;55.644;37.734;2023-02-15T04:30:05;100645.63;;;-0.63;62.10
75409;BME280;63979;55.644;37.734;2023-02-15T04:35:07;100629.91;;;-0.66;62.99
75409;BME280;63979;55.644;37.734;2023-02-15T04:40:15;100643.06;;;-0.69;62.58
75409;BME280;63979;55.644;37.734;2023-02-15T04:45:17;100590.97;;;-1.04;61.66
75409;BME280;63979;55.644;37.734;2023-02-15T04:50:18;100633.69;;;-0.97;61.76
75409;BME280;63979;55.644;37.734;2023-02-15T04:55:19;100631.09;;;-0.97;60.71
75409;BME280;63979;55.644;37.734;2023-02-15T05:00:20;100623.31;;;-1.09;60.97
75409;BME280;63979;55.644;37.734;2023-02-15T05:05:21;100633.75;;;-1.02;60.32
75409;BME280;63979;55.644;37.734;2023-02-15T05:10:22;100644.19;;;-0.97;60.38
75409;BME280;63979;55.644;37.734;2023-02-15T05:15:23;100633.75;;;-1.05;60.45
75409;BME280;63979;55.644;37.734;2023-02-15T05:20:24;100665.16;;;-0.97;60.67
75409;BME280;63979;55.644;37.734;2023-02-15T05:25:25;100659.00;;;-0.95;59.75
75409;BME280;63979;55.644;37.734;2023-02-15T05:36:05;100662.31;;;-0.74;59.78
75409;BME280;63979;55.644;37.734;2023-02-15T05:41:08;100615.41;;;-1.03;59.56
75409;BME280;63979;55.644;37.734;2023-02-15T05:46:09;100664.16;;;-0.85;59.29
75409;BME280;63979;55.644;37.734;2023-02-15T05:51:12;100544.19;;;-1.46;59.57
75409;BME280;63979;55.644;37.734;2023-02-15T05:56:15;100667.53;;;-0.74;58.85
75409;BME280;63979;55.644;37.734;2023-02-15T06:01:18;100671.84;;;-0.66;58.52
75409;BME280;63979;55.644;37.734;2023-02-15T06:06:21;100681.31;;;-0.51;58.97
75409;BME280;63979;55.644;37.734;2023-02-15T06:11:23;100669.13;;;-0.55;57.66
75409;BME280;63979;55.644;37.734;2023-02-15T06:16:24;100653.31;;;-0.49;57.30
75409;BME280;63979;55.644;37.734;2023-02-15T06:21:25;100690.09;;;-0.55;56.50
75409;BME280;63979;55.644;37.734;2023-02-15T06:26:26;100695.22;;;-0.43;56.60
75409;BME280;63979;55.644;37.734;2023-02-15T06:31:27;100703.09;;;-0.43;56.39
75409;BME280;63979;55.644;37.734;2023-02-15T06:36:29;100641.31;;;-0.68;56.43
75409;BME280;63979;55.644;37.734;2023-02-15T06:41:31;100695.91;;;-0.22;56.08
75409;BME280;63979;55.644;37.734;2023-02-15T06:46:32;100691.63;;;-0.33;56.10
75409;BME280;63979;55.644;37.734;2023-02-15T06:51:33;100701.19;;;-0.25;56.26
75409;BME280;63979;55.644;37.734;2023-02-15T06:56:34;100717.88;;;-0.37;57.66
75409;BME280;63979;55.644;37.734;2023-02-15T07:01:36;100700.50;;;-0.46;56.85
75409;BME280;63979;55.644;37.734;2023-02-15T07:06:37;100702.16;;;-0.39;57.23
75409;BME280;63979;55.644;37.734;2023-02-15T07:11:38;100689.88;;;-0.32;56.87
75409;BME280;63979;55.644;37.734;2023-02-15T07:16:58;100701.91;;;-0.14;56.63
75409;BME280;63979;55.644;37.734;2023-02-15T07:21:59;100694.00;;;-0.11;56.44
75409;BME280;63979;55.644;37.734;2023-02-15T07:27:00;100722.38;;;0.31;55.63
75409;BME280;63979;55.644;37.734;2023-02-15T07:32:02;100720.53;;;0.41;55.28
75409;BME280;63979;55.644;37.734;2023-02-15T07:37:03;100722.72;;;0.75;54.54
75409;BME280;63979;55.644;37.734;2023-02-15T07:42:04;100716.41;;;0.86;54.22
75409;BME280;63979;55.644;37.734;2023-02-15T07:47:05;100676.09;;;0.87;53.44
75409;BME280;63979;55.644;37.734;2023-02-15T07:52:07;100694.59;;;1.34;52.21
75409;BME280;63979;55.644;37.734;2023-02-15T07:57:08;100725.91;;;1.50;52.03
75409;BME280;63979;55.644;37.734;2023-02-15T08:02:12;100731.41;;;1.35;52.49
75409;BME280;63979;55.644;37.734;2023-02-15T08:07:13;100721.69;;;1.39;53.30
75409;BME280;63979;55.644;37.734;2023-02-15T08:12:17;100728.63;;;1.46;53.34
75409;BME280;63979;55.644;37.734;2023-02-15T08:17:18;100750.94;;;1.19;53.00
75409;BME280;63979;55.644;37.734;2023-02-15T08:22:19;100753.59;;;1.19;53.41
75409;BME280;63979;55.644;37.734;2023-02-15T08:27:21;100754.13;;;1.41;53.36
75409;BME280;63979;55.644;37.734;2023-02-15T08:32:27;100765.59;;;1.35;52.59
75409;BME280;63979;55.644;37.734;2023-02-15T08:37:28;100767.09;;;0.93;53.34
75409;BME280;63979;55.644;37.734;2023-02-15T08:42:29;100768.19;;;0.78;53.59
75409;BME280;63979;55.644;37.734;2023-02-15T08:47:31;100773.28;;;0.89;53.59
75409;BME280;63979;55.644;37.734;2023-02-15T08:52:32;100705.41;;;0.58;54.14
75409;BME280;63979;55.644;37.734;2023-02-15T08:57:33;100777.44;;;1.07;53.21
75409;BME280;63979;55.644;37.734;2023-02-15T09:02:34;100774.72;;;1.13;53.84
75409;BME280;63979;55.644;37.734;2023-02-15T09:07:36;100776.59;;;1.03;54.38
75409;BME280;63979;55.644;37.734;2023-02-15T09:12:38;100762.66;;;0.97;55.28
75409;BME280;63979;55.644;37.734;2023-02-15T09:17:39;100779.13;;;1.11;55.80
75409;BME280;63979;55.644;37.734;2023-02-15T09:22:40;100773.69;;;1.23;56.20
75409;BME280;63979;55.644;37.734;2023-02-15T09:27:41;100774.44;;;1.30;54.96
75409;BME280;63979;55.644;37.734;2023-02-15T09:32:42;100781.38;;;1.35;54.70
75409;BME280;63979;55.644;37.734;2023-02-15T09:37:43;100787.50;;;1.36;54.26
75409;BME280;63979;55.644;37.734;2023-02-15T09:48:30;100799.56;;;1.50;53.81
75409;BME280;63979;55.644;37.734;2023-02-15T09:53:29;100803.28;;;1.36;54.93
75409;BME280;63979;55.644;37.734;2023-02-15T10:58:09;100854.63;;;1.00;58.01
75409;BME280;63979;55.644;37.734;2023-02-15T11:03:48;100846.91;;;1.50;56.43
75409;BME280;63979;55.644;37.734;2023-02-15T11:09:08;100852.19;;;1.50;56.55
75409;BME280;63979;55.644;37.734;2023-02-15T11:19:31;100856.31;;;1.04;57.96
75409;BME280;63979;55.644;37.734;2023-02-15T11:24:39;100865.75;;;1.20;57.48
75409;BME280;63979;55.644;37.734;2023-02-15T11:40:22;100873.34;;;0.75;56.32
75409;BME280;63979;55.644;37.734;2023-02-15T11:45:30;100845.72;;;0.41;56.75
75409;BME280;63979;55.644;37.734;2023-02-15T11:50:32;100897.13;;;0.60;55.87
75409;BME280;63979;55.644;37.734;2023-02-15T11:55:33;100886.78;;;0.48;55.44
75409;BME280;63979;55.644;37.734;2023-02-15T12:00:38;100902.63;;;0.39;55.55
75409;BME280;63979;55.644;37.734;2023-02-15T12:05:44;100842.53;;;0.07;56.71
75409;BME280;63979;55.644;37.734;2023-02-15T12:11:09;100904.22;;;0.53;53.78
75409;BME280;63979;55.644;37.734;2023-02-15T12:16:13;100891.94;;;0.54;52.60
75409;BME280;63979;55.644;37.734;2023-02-15T12:21:25;100912.06;;;0.55;52.57
75409;BME280;63979;55.644;37.734;2023-02-15T12:26:35;100918.38;;;0.39;53.34
75409;BME280;63979;55.644;37.734;2023-02-15T12:31:40;100931.50;;;0.40;54.41
75409;BME280;63979;55.644;37.734;2023-02-15T12:36:46;100921.84;;;0.42;54.91
75409;BME280;63979;55.644;37.734;2023-02-15T12:47:04;100942.94;;;0.31;53.85
75409;BME280;63979;55.644;37.734;2023-02-15T12:52:23;100960.56;;;0.16;53.51
75409;BME280;63979;55.644;37.734;2023-02-15T12:57:30;100958.97;;;-0.07;54.51
75409;BME280;63979;55.644;37.734;2023-02-15T13:07:46;100981.72;;;-0.07;57.39
75409;BME280;63979;55.644;37.734;2023-02-15T13:12:49;100979.16;;;-0.13;55.98
75409;BME280;63979;55.644;37.734;2023-02-15T13:17:56;100986.09;;;-0.08;55.45
75409;BME280;63979;55.644;37.734;2023-02-15T13:23:02;100986.91;;;0.05;55.46
75409;BME280;63979;55.644;37.734;2023-02-15T13:28:06;100982.47;;;0.15;55.24
75409;BME280;63979;55.644;37.734;2023-02-15T13:33:32;101000.72;;;0.27;53.17
75409;BME280;63979;55.644;37.734;2023-02-15T13:38:44;101008.81;;;0.01;52.38
75409;BME280;63979;55.644;37.734;2023-02-15T13:49:30;101030.06;;;-0.49;53.00
75409;BME280;63979;55.644;37.734;2023-02-15T14:00:16;101027.56;;;-0.86;54.71
75409;BME280;63979;55.644;37.734;2023-02-15T14:10:59;100981.34;;;-1.20;53.96
75409;BME280;63979;55.644;37.734;2023-02-15T14:16:17;101045.91;;;-0.86;54.27
75409;BME280;63979;55.644;37.734;2023-02-15T14:21:48;101043.31;;;-1.00;55.07
75409;BME280;63979;55.644;37.734;2023-02-15T14:26:55;101050.31;;;-0.97;55.88
75409;BME280;63979;55.644;37.734;2023-02-15T14:32:08;101021.50;;;-1.03;55.84
75409;BME280;63979;55.644;37.734;2023-02-15T14:37:13;101057.25;;;-0.82;56.51
75409;BME280;63979;55.644;37.734;2023-02-15T14:47:42;101063.41;;;-0.97;56.48
75409;BME280;63979;55.644;37.734;2023-02-15T14:53:32;101068.63;;;-0.96;57.44
75409;BME280;63979;55.644;37.734;2023-02-15T14:58:26;101080.84;;;-0.85;57.79
75409;BME280;63979;55.644;37.734;2023-02-15T15:03:28;101067.72;;;-0.84;57.56
75409;BME280;63979;55.644;37.734;2023-02-15T15:08:33;101073.84;;;-0.82;57.42
75409;BME280;63979;55.644;37.734;2023-02-15T15:13:36;101077.34;;;-0.90;57.45
75409;BME280;63979;55.644;37.734;2023-02-15T15:18:48;101087.84;;;-0.92;57.72
75409;BME280;63979;55.644;37.734;2023-02-15T15:23:49;101095.72;;;-1.03;57.63
75409;BME280;63979;55.644;37.734;2023-02-15T15:50:17;101122.78;;;-1.25;57.95
75409;BME280;63979;55.644;37.734;2023-02-15T15:55:25;101135.88;;;-1.27;58.92
75409;BME280;63979;55.644;37.734;2023-02-15T16:00:36;101127.16;;;-1.21;59.44
75409;BME280;63979;55.644;37.734;2023-02-15T16:05:40;101123.66;;;-1.31;58.62
75409;BME280;63979;55.644;37.734;2023-02-15T16:10:41;101124.53;;;-1.29;58.85
75409;BME280;63979;55.644;37.734;2023-02-15T16:15:47;101131.53;;;-1.18;58.68
75409;BME280;63979;55.644;37.734;2023-02-15T16:20:53;101121.03;;;-1.18;57.69
75409;BME280;63979;55.644;37.734;2023-02-15T16:26:04;101144.63;;;-0.99;57.71
75409;BME280;63979;55.644;37.734;2023-02-15T16:31:13;101145.50;;;-1.03;57.87
75409;BME280;63979;55.644;37.734;2023-02-15T16:36:26;101153.38;;;-1.00;57.65
75409;BME280;63979;55.644;37.734;2023-02-15T16:41:29;101142.00;;;-1.12;58.20
75409;BME280;63979;55.644;37.734;2023-02-15T16:46:33;101138.50;;;-1.20;58.29
75409;BME280;63979;55.644;37.734;2023-02-15T16:51:36;101101.84;;;-1.37;57.73
75409;BME280;63979;55.644;37.734;2023-02-15T16:56:37;101150.72;;;-1.09;58.74
75409;BME280;63979;55.644;37.734;2023-02-15T17:01:43;101139.38;;;-1.05;58.50
75409;BME280;63979;55.644;37.734;2023-02-15T17:07:03;101143.75;;;-1.02;59.09
75409;BME280;63979;55.644;37.734;2023-02-15T17:12:07;101151.63;;;-1.04;58.10
75409;BME280;63979;55.644;37.734;2023-02-15T17:17:14;101136.75;;;-1.28;58.22
75409;BME280;63979;55.644;37.734;2023-02-15T17:22:19;101161.19;;;-1.09;57.97
75409;BME280;63979;55.644;37.734;2023-02-15T17:27:24;101108.81;;;-1.36;57.69
75409;BME280;63979;55.644;37.734;2023-02-15T17:32:29;101160.34;;;-0.99;57.47
75409;BME280;63979;55.644;37.734;2023-02-15T17:42:39;101169.97;;;-0.98;57.81
75409;BME280;63979;55.644;37.734;2023-02-15T17:47:41;101164.72;;;-0.99;56.90
75409;BME280;63979;55.644;37.734;2023-02-15T17:52:42;101169.97;;;-0.98;56.80
75409;BME280;63979;55.644;37.734;2023-02-15T17:57:43;101162.97;;;-1.02;57.22
75409;BME280;63979;55.644;37.734;2023-02-15T18:02:45;101165.59;;;-1.02;57.10
75409;BME280;63979;55.644;37.734;2023-02-15T18:08:26;101160.34;;;-0.99;57.54
75409;BME280;63979;55.644;37.734;2023-02-15T18:13:47;101175.19;;;-0.98;57.50
75409;BME280;63979;55.644;37.734;2023-02-15T18:18:48;101105.34;;;-1.32;58.17
75409;BME280;63979;55.644;37.734;2023-02-15T18:23:50;101165.59;;;-0.99;58.41
75409;BME280;63979;55.644;37.734;2023-02-15T18:28:51;101166.44;;;-1.04;58.54
75409;BME280;63979;55.644;37.734;2023-02-15T18:33:54;101165.59;;;-1.03;59.72
75409;BME280;63979;55.644;37.734;2023-02-15T18:38:58;101155.09;;;-1.14;59.17
75409;BME280;63979;55.644;37.734;2023-02-15T18:43:59;101151.59;;;-1.25;59.75
75409;BME280;63979;55.644;37.734;2023-02-15T18:49:00;101162.94;;;-1.21;59.66
75409;BME280;63979;55.644;37.734;2023-02-15T18:54:01;101154.22;;;-1.20;58.85
75409;BME280;63979;55.644;37.734;2023-02-15T18:59:02;101144.63;;;-1.20;59.62
75409;BME280;63979;55.644;37.734;2023-02-15T19:04:03;101159.47;;;-1.11;59.31
75409;BME280;63979;55.644;37.734;2023-02-15T19:09:04;101137.63;;;-1.27;58.83
75409;BME280;63979;55.644;37.734;2023-02-15T19:14:14;101170.81;;;-1.31;58.99
75409;BME280;63979;55.644;37.734;2023-02-15T19:19:22;101168.19;;;-1.28;58.83
75409;BME280;63979;55.644;37.734;2023-02-15T19:24:30;101173.44;;;-1.26;60.08
75409;BME280;63979;55.644;37.734;2023-02-15T19:29:33;101169.06;;;-1.30;59.17
75409;BME280;63979;55.644;37.734;2023-02-15T19:34:34;101167.31;;;-1.30;59.63
75409;BME280;63979;55.644;37.734;2023-02-15T19:39:37;101172.56;;;-1.34;59.52
75409;BME280;63979;55.644;37.734;2023-02-15T19:44:39;101162.94;;;-1.29;59.45
75409;BME280;63979;55.644;37.734;2023-02-15T19:49:43;101165.56;;;-1.32;59.55
75409;BME280;63979;55.644;37.734;2023-02-15T19:54:44;101163.81;;;-1.35;59.78
75409;BME280;63979;55.644;37.734;2023-02-15T19:59:45;101167.31;;;-1.28;60.40
75409;BME280;63979;55.644;37.734;2023-02-15T20:04:46;101163.81;;;-1.27;60.39
75409;BME280;63979;55.644;37.734;2023-02-15T20:09:47;101169.94;;;-1.28;60.43
75409;BME280;63979;55.644;37.734;2023-02-15T20:14:49;101124.50;;;-1.53;60.39
75409;BME280;63979;55.644;37.734;2023-02-15T20:19:50;101169.94;;;-1.33;61.50
75409;BME280;63979;55.644;37.734;2023-02-15T20:24:52;101169.88;;;-1.42;60.65
75409;BME280;63979;55.644;37.734;2023-02-15T20:29:56;101170.81;;;-1.38;60.85
75409;BME280;63979;55.644;37.734;2023-02-15T20:34:58;101166.41;;;-1.44;62.36
75409;BME280;63979;55.644;37.734;2023-02-15T20:40:00;101158.53;;;-1.42;62.20
75409;BME280;63979;55.644;37.734;2023-02-15T20:45:13;101127.09;;;-1.64;62.14
75409;BME280;63979;55.644;37.734;2023-02-15T20:50:16;101158.53;;;-1.45;62.68
75409;BME280;63979;55.644;37.734;2023-02-15T20:55:22;101167.28;;;-1.46;62.23
75409;BME280;63979;55.644;37.734;2023-02-15T21:00:26;101164.66;;;-1.42;62.67
75409;BME280;63979;55.644;37.734;2023-02-15T21:05:31;101139.34;;;-1.53;61.82
75409;BME280;63979;55.644;37.734;2023-02-15T21:10:33;101163.78;;;-1.51;62.17
75409;BME280;63979;55.644;37.734;2023-02-15T21:15:36;101141.94;;;-1.64;62.03
75409;BME280;63979;55.644;37.734;2023-02-15T21:20:43;101153.28;;;-1.64;62.38
75409;BME280;63979;55.644;37.734;2023-02-15T21:25:45;101162.00;;;-1.66;61.83
75409;BME280;63979;55.644;37.734;2023-02-15T21:30:47;101111.34;;;-1.91;62.00
75409;BME280;63979;55.644;37.734;2023-02-15T21:35:54;101168.13;;;-1.64;61.93
75409;BME280;63979;55.644;37.734;2023-02-15T21:40:56;101169.81;;;-1.74;61.96
75409;BME280;63979;55.644;37.734;2023-02-15T21:46:18;101172.41;;;-1.77;61.14
75409;BME280;63979;55.644;37.734;2023-02-15T21:51:37;101125.28;;;-1.98;60.82
75409;BME280;63979;55.644;37.734;2023-02-15T21:56:57;101171.59;;;-1.73;60.76
75409;BME280;63979;55.644;37.734;2023-02-15T22:02:00;101169.78;;;-1.88;60.26
75409;BME280;63979;55.644;37.734;2023-02-15T22:07:01;101161.06;;;-1.86;60.55
75409;BME280;63979;55.644;37.734;2023-02-15T22:12:02;101159.31;;;-1.80;60.46
75409;BME280;63979;55.644;37.734;2023-02-15T22:22:14;101154.09;;;-1.84;60.75
75409;BME280;63979;55.644;37.734;2023-02-15T22:27:16;101161.94;;;-1.75;60.16
75409;BME280;63979;55.644;37.734;2023-02-15T22:32:24;101165.44;;;-1.76;60.30
75409;BME280;63979;55.644;37.734;2023-02-15T22:37:25;101167.19;;;-1.75;60.40
75409;BME280;63979;55.644;37.734;2023-02-15T22:42:27;101162.81;;;-1.79;60.84
75409;BME280;63979;55.644;37.734;2023-02-15T22:47:28;101170.66;;;-1.84;60.91
75409;BME280;63979;55.644;37.734;2023-02-15T22:52:32;101161.94;;;-1.86;60.83
75409;BME280;63979;55.644;37.734;2023-02-15T22:57:33;101175.91;;;-1.79;61.08
75409;BME280;63979;55.644;37.734;2023-02-15T23:02:34;101112.09;;;-2.20;60.73
75409;BME280;63979;55.644;37.734;2023-02-15T23:07:35;101174.16;;;-1.82;61.98
75409;BME280;63979;55.644;37.734;2023-02-15T23:12:36;101166.28;;;-1.83;61.30
75409;BME280;63979;55.644;37.734;2023-02-15T23:18:22;101170.63;;;-1.93;61.58
75409;BME280;63979;55.644;37.734;2023-02-15T23:23:29;101164.53;;;-1.89;61.53
75409;BME280;63979;55.644;37.734;2023-02-15T23:28:34;101133.13;;;-1.95;62.01
75409;BME280;63979;55.644;37.734;2023-02-15T23:33:35;101155.81;;;-1.85;62.47
75409;BME280;63979;55.644;37.734;2023-02-15T23:38:36;101150.63;;;-1.76;61.06
75409;BME280;63979;55.644;37.734;2023-02-15T23:43:39;101151.47;;;-1.80;60.34
75409;BME280;63979;55.644;37.734;2023-02-15T23:48:41;101144.53;;;-1.72;60.43
75409;BME280;63979;55.644;37.734;2023-02-15T23:53:41;101134.91;;;-1.82;60.46
75409;BME280;63979;55.644;37.734;2023-02-15T23:58:44;101149.78;;;-1.73;60.78
